sensor_id;sensor_type;location;lat;lon;timestamp;temperature;humidity
15574;DHT22;7888;46.748;8.102;2022-08-19T00:01:49;20.60;61.10
15574;DHT22;7888;46.748;8.102;2022-08-19T00:04:18;20.60;61.30
15574;DHT22;7888;46.748;8.102;2022-08-19T00:06:53;20.60;61.20
15574;DHT22;7888;46.748;8.102;2022-08-19T00:09:20;20.60;61.90
15574;DHT22;7888;46.748;8.102;2022-08-19T00:11:47;20.60;61.30
15574;DHT22;7888;46.748;8.102;2022-08-19T00:14:15;20.60;61.10
15574;DHT22;7888;46.748;8.102;2022-08-19T00:16:45;20.60;60.90
15574;DHT22;7888;46.748;8.102;2022-08-19T00:19:13;20.60;61.20
15574;DHT22;7888;46.748;8.102;2022-08-19T00:21:40;20.60;61.30
15574;DHT22;7888;46.748;8.102;2022-08-19T00:24:11;20.60;61.40
15574;DHT22;7888;46.748;8.102;2022-08-19T00:26:38;20.60;62.00
15574;DHT22;7888;46.748;8.102;2022-08-19T00:29:07;20.60;61.60
15574;DHT22;7888;46.748;8.102;2022-08-19T00:31:35;20.60;61.70
15574;DHT22;7888;46.748;8.102;2022-08-19T00:34:01;20.60;61.80
15574;DHT22;7888;46.748;8.102;2022-08-19T00:36:28;20.60;61.60
15574;DHT22;7888;46.748;8.102;2022-08-19T00:38:54;20.60;61.40
15574;DHT22;7888;46.748;8.102;2022-08-19T00:41:23;20.60;61.40
15574;DHT22;7888;46.748;8.102;2022-08-19T00:46:35;20.60;61.90
15574;DHT22;7888;46.748;8.102;2022-08-19T00:49:09;20.60;61.20
15574;DHT22;7888;46.748;8.102;2022-08-19T00:51:44;20.60;61.20
15574;DHT22;7888;46.748;8.102;2022-08-19T00:54:12;20.60;61.00
15574;DHT22;7888;46.748;8.102;2022-08-19T00:56:38;20.60;60.90
15574;DHT22;7888;46.748;8.102;2022-08-19T00:59:05;20.60;61.20
15574;DHT22;7888;46.748;8.102;2022-08-19T01:01:39;20.60;61.20
15574;DHT22;7888;46.748;8.102;2022-08-19T01:04:07;20.60;60.90
15574;DHT22;7888;46.748;8.102;2022-08-19T01:06:35;20.60;60.60
15574;DHT22;7888;46.748;8.102;2022-08-19T01:09:03;20.60;61.30
15574;DHT22;7888;46.748;8.102;2022-08-19T01:11:34;20.60;61.10
15574;DHT22;7888;46.748;8.102;2022-08-19T01:14:05;20.60;61.20
15574;DHT22;7888;46.748;8.102;2022-08-19T01:16:33;20.60;61.30
15574;DHT22;7888;46.748;8.102;2022-08-19T01:19:01;20.60;61.60
15574;DHT22;7888;46.748;8.102;2022-08-19T01:23:59;20.60;61.60
15574;DHT22;7888;46.748;8.102;2022-08-19T01:26:26;20.60;61.50
15574;DHT22;7888;46.748;8.102;2022-08-19T01:28:56;20.70;61.40
15574;DHT22;7888;46.748;8.102;2022-08-19T01:31:25;20.70;61.40
15574;DHT22;7888;46.748;8.102;2022-08-19T01:33:57;20.70;61.20
15574;DHT22;7888;46.748;8.102;2022-08-19T01:36:39;20.70;61.30
15574;DHT22;7888;46.748;8.102;2022-08-19T01:39:11;20.70;62.20
15574;DHT22;7888;46.748;8.102;2022-08-19T01:41:38;20.70;61.80
15574;DHT22;7888;46.748;8.102;2022-08-19T01:44:06;20.70;61.60
15574;DHT22;7888;46.748;8.102;2022-08-19T01:46:33;20.70;62.20
15574;DHT22;7888;46.748;8.102;2022-08-19T01:49:01;20.70;62.40
15574;DHT22;7888;46.748;8.102;2022-08-19T01:51:28;20.70;62.70
15574;DHT22;7888;46.748;8.102;2022-08-19T01:53:56;20.70;62.80
15574;DHT22;7888;46.748;8.102;2022-08-19T01:56:23;20.70;62.70
15574;DHT22;7888;46.748;8.102;2022-08-19T01:58:58;20.70;62.00
15574;DHT22;7888;46.748;8.102;2022-08-19T02:01:27;20.60;62.40
15574;DHT22;7888;46.748;8.102;2022-08-19T02:03:54;20.70;62.20
15574;DHT22;7888;46.748;8.102;2022-08-19T02:06:20;20.70;62.40
15574;DHT22;7888;46.748;8.102;2022-08-19T02:08:46;20.70;62.40
15574;DHT22;7888;46.748;8.102;2022-08-19T02:11:20;20.70;62.70
15574;DHT22;7888;46.748;8.102;2022-08-19T02:13:48;20.70;63.10
15574;DHT22;7888;46.748;8.102;2022-08-19T02:16:16;20.70;62.60
15574;DHT22;7888;46.748;8.102;2022-08-19T02:18:43;20.70;63.00
15574;DHT22;7888;46.748;8.102;2022-08-19T02:21:09;20.70;62.90
15574;DHT22;7888;46.748;8.102;2022-08-19T02:23:36;20.70;62.90
15574;DHT22;7888;46.748;8.102;2022-08-19T02:26:02;20.70;63.10
15574;DHT22;7888;46.748;8.102;2022-08-19T02:28:28;20.70;62.90
15574;DHT22;7888;46.748;8.102;2022-08-19T02:30:53;20.80;62.90
15574;DHT22;7888;46.748;8.102;2022-08-19T02:33:19;20.80;63.10
15574;DHT22;7888;46.748;8.102;2022-08-19T02:35:46;20.80;63.10
15574;DHT22;7888;46.748;8.102;2022-08-19T02:38:12;20.70;62.90
15574;DHT22;7888;46.748;8.102;2022-08-19T02:40:58;20.70;62.70
15574;DHT22;7888;46.748;8.102;2022-08-19T02:43:27;20.70;63.00
15574;DHT22;7888;46.748;8.102;2022-08-19T02:45:54;20.60;62.60
15574;DHT22;7888;46.748;8.102;2022-08-19T02:48:22;20.60;62.60
15574;DHT22;7888;46.748;8.102;2022-08-19T02:50:52;20.50;62.70
15574;DHT22;7888;46.748;8.102;2022-08-19T02:53:21;20.50;63.00
15574;DHT22;7888;46.748;8.102;2022-08-19T02:55:49;20.50;63.00
15574;DHT22;7888;46.748;8.102;2022-08-19T02:58:16;20.40;62.90
15574;DHT22;7888;46.748;8.102;2022-08-19T03:00:48;20.40;63.00
15574;DHT22;7888;46.748;8.102;2022-08-19T03:03:17;20.40;63.50
15574;DHT22;7888;46.748;8.102;2022-08-19T03:05:44;20.40;62.90
15574;DHT22;7888;46.748;8.102;2022-08-19T03:08:11;20.40;63.30
15574;DHT22;7888;46.748;8.102;2022-08-19T03:10:45;20.40;63.80
15574;DHT22;7888;46.748;8.102;2022-08-19T03:13:14;20.40;64.70
15574;DHT22;7888;46.748;8.102;2022-08-19T03:15:43;20.40;64.00
15574;DHT22;7888;46.748;8.102;2022-08-19T03:18:12;20.40;63.80
15574;DHT22;7888;46.748;8.102;2022-08-19T03:20:41;20.40;63.70
15574;DHT22;7888;46.748;8.102;2022-08-19T03:23:12;20.40;64.10
15574;DHT22;7888;46.748;8.102;2022-08-19T03:25:41;20.40;63.80
15574;DHT22;7888;46.748;8.102;2022-08-19T03:28:14;20.40;64.00
15574;DHT22;7888;46.748;8.102;2022-08-19T03:30:42;20.40;64.40
15574;DHT22;7888;46.748;8.102;2022-08-19T03:33:22;20.50;63.90
15574;DHT22;7888;46.748;8.102;2022-08-19T03:36:00;20.50;63.60
15574;DHT22;7888;46.748;8.102;2022-08-19T03:38:26;20.40;64.20
15574;DHT22;7888;46.748;8.102;2022-08-19T03:40:52;20.40;63.20
15574;DHT22;7888;46.748;8.102;2022-08-19T03:43:17;20.40;63.20
15574;DHT22;7888;46.748;8.102;2022-08-19T03:45:44;20.40;63.20
15574;DHT22;7888;46.748;8.102;2022-08-19T03:48:10;20.40;63.50
15574;DHT22;7888;46.748;8.102;2022-08-19T03:50:39;20.30;63.70
15574;DHT22;7888;46.748;8.102;2022-08-19T03:53:06;20.30;64.40
15574;DHT22;7888;46.748;8.102;2022-08-19T03:55:38;20.30;63.70
15574;DHT22;7888;46.748;8.102;2022-08-19T03:58:06;20.30;63.80
15574;DHT22;7888;46.748;8.102;2022-08-19T04:00:32;20.40;64.10
15574;DHT22;7888;46.748;8.102;2022-08-19T04:02:59;20.30;64.20
15574;DHT22;7888;46.748;8.102;2022-08-19T04:05:27;20.30;64.50
15574;DHT22;7888;46.748;8.102;2022-08-19T04:07:54;20.40;65.00
15574;DHT22;7888;46.748;8.102;2022-08-19T04:10:24;20.40;65.10
15574;DHT22;7888;46.748;8.102;2022-08-19T04:12:50;20.40;64.80
15574;DHT22;7888;46.748;8.102;2022-08-19T04:15:16;20.40;65.30
15574;DHT22;7888;46.748;8.102;2022-08-19T04:17:41;20.40;64.80
15574;DHT22;7888;46.748;8.102;2022-08-19T04:20:08;20.40;64.80
15574;DHT22;7888;46.748;8.102;2022-08-19T04:22:33;20.40;64.50
15574;DHT22;7888;46.748;8.102;2022-08-19T04:24:59;20.40;64.70
15574;DHT22;7888;46.748;8.102;2022-08-19T04:27:25;20.40;64.80
15574;DHT22;7888;46.748;8.102;2022-08-19T04:29:51;20.40;64.90
15574;DHT22;7888;46.748;8.102;2022-08-19T04:32:20;20.40;65.00
15574;DHT22;7888;46.748;8.102;2022-08-19T04:34:46;20.40;65.00
15574;DHT22;7888;46.748;8.102;2022-08-19T04:37:12;20.40;65.20
15574;DHT22;7888;46.748;8.102;2022-08-19T04:39:38;20.40;65.10
15574;DHT22;7888;46.748;8.102;2022-08-19T04:42:23;20.40;65.30
15574;DHT22;7888;46.748;8.102;2022-08-19T04:45:11;20.40;65.20
15574;DHT22;7888;46.748;8.102;2022-08-19T04:47:42;20.40;65.90
15574;DHT22;7888;46.748;8.102;2022-08-19T04:50:10;20.40;65.70
15574;DHT22;7888;46.748;8.102;2022-08-19T04:52:37;20.40;65.30
15574;DHT22;7888;46.748;8.102;2022-08-19T04:55:09;20.40;65.20
15574;DHT22;7888;46.748;8.102;2022-08-19T04:57:36;20.40;65.30
15574;DHT22;7888;46.748;8.102;2022-08-19T05:00:07;20.40;65.50
15574;DHT22;7888;46.748;8.102;2022-08-19T05:02:34;20.40;65.60
15574;DHT22;7888;46.748;8.102;2022-08-19T05:05:00;20.50;65.70
15574;DHT22;7888;46.748;8.102;2022-08-19T05:07:26;20.50;65.60
15574;DHT22;7888;46.748;8.102;2022-08-19T05:09:52;20.50;65.30
15574;DHT22;7888;46.748;8.102;2022-08-19T05:12:18;20.50;65.50
15574;DHT22;7888;46.748;8.102;2022-08-19T05:14:45;20.50;65.60
15574;DHT22;7888;46.748;8.102;2022-08-19T05:17:13;20.50;65.90
15574;DHT22;7888;46.748;8.102;2022-08-19T05:19:39;20.50;66.10
15574;DHT22;7888;46.748;8.102;2022-08-19T05:22:23;20.50;66.40
15574;DHT22;7888;46.748;8.102;2022-08-19T05:25:06;20.60;66.20
15574;DHT22;7888;46.748;8.102;2022-08-19T05:27:35;20.60;66.70
15574;DHT22;7888;46.748;8.102;2022-08-19T05:30:01;20.50;66.10
15574;DHT22;7888;46.748;8.102;2022-08-19T05:32:27;20.50;65.90
15574;DHT22;7888;46.748;8.102;2022-08-19T05:34:53;20.50;66.00
15574;DHT22;7888;46.748;8.102;2022-08-19T05:37:19;20.50;66.10
15574;DHT22;7888;46.748;8.102;2022-08-19T05:39:46;20.50;66.20
15574;DHT22;7888;46.748;8.102;2022-08-19T05:42:12;20.50;66.20
15574;DHT22;7888;46.748;8.102;2022-08-19T05:44:41;20.50;66.50
15574;DHT22;7888;46.748;8.102;2022-08-19T05:47:10;20.50;66.90
15574;DHT22;7888;46.748;8.102;2022-08-19T05:49:38;20.50;66.90
15574;DHT22;7888;46.748;8.102;2022-08-19T05:52:06;20.50;67.90
15574;DHT22;7888;46.748;8.102;2022-08-19T05:54:34;20.50;67.40
15574;DHT22;7888;46.748;8.102;2022-08-19T05:57:01;20.60;67.50
15574;DHT22;7888;46.748;8.102;2022-08-19T05:59:27;20.50;67.30
15574;DHT22;7888;46.748;8.102;2022-08-19T06:01:54;20.60;67.40
15574;DHT22;7888;46.748;8.102;2022-08-19T06:04:21;20.60;67.50
15574;DHT22;7888;46.748;8.102;2022-08-19T06:06:49;20.60;67.50
15574;DHT22;7888;46.748;8.102;2022-08-19T06:09:19;20.60;67.70
15574;DHT22;7888;46.748;8.102;2022-08-19T06:11:52;20.60;67.40
15574;DHT22;7888;46.748;8.102;2022-08-19T06:14:23;20.60;67.40
15574;DHT22;7888;46.748;8.102;2022-08-19T06:16:51;20.70;67.40
15574;DHT22;7888;46.748;8.102;2022-08-19T06:19:21;20.70;67.50
15574;DHT22;7888;46.748;8.102;2022-08-19T06:21:50;20.60;67.40
15574;DHT22;7888;46.748;8.102;2022-08-19T06:24:20;20.70;67.20
15574;DHT22;7888;46.748;8.102;2022-08-19T06:26:52;20.70;67.30
15574;DHT22;7888;46.748;8.102;2022-08-19T06:29:23;20.70;67.10
15574;DHT22;7888;46.748;8.102;2022-08-19T06:31:52;20.70;67.20
15574;DHT22;7888;46.748;8.102;2022-08-19T06:34:20;20.60;67.30
15574;DHT22;7888;46.748;8.102;2022-08-19T06:36:48;20.70;67.40
15574;DHT22;7888;46.748;8.102;2022-08-19T06:39:25;20.70;67.50
15574;DHT22;7888;46.748;8.102;2022-08-19T06:41:55;20.70;67.70
15574;DHT22;7888;46.748;8.102;2022-08-19T06:44:24;20.70;67.40
15574;DHT22;7888;46.748;8.102;2022-08-19T06:46:52;20.60;66.80
15574;DHT22;7888;46.748;8.102;2022-08-19T06:49:19;20.60;65.70
15574;DHT22;7888;46.748;8.102;2022-08-19T06:51:47;20.70;65.50
15574;DHT22;7888;46.748;8.102;2022-08-19T06:54:15;20.60;65.40
15574;DHT22;7888;46.748;8.102;2022-08-19T06:56:42;20.60;65.70
15574;DHT22;7888;46.748;8.102;2022-08-19T06:59:15;20.60;65.60
15574;DHT22;7888;46.748;8.102;2022-08-19T07:01:51;20.60;65.40
15574;DHT22;7888;46.748;8.102;2022-08-19T07:04:24;20.50;65.50
15574;DHT22;7888;46.748;8.102;2022-08-19T07:07:02;20.50;65.30
15574;DHT22;7888;46.748;8.102;2022-08-19T07:09:34;20.50;65.20
15574;DHT22;7888;46.748;8.102;2022-08-19T07:12:04;20.50;64.80
15574;DHT22;7888;46.748;8.102;2022-08-19T07:14:32;20.40;64.50
15574;DHT22;7888;46.748;8.102;2022-08-19T07:17:02;20.40;65.00
15574;DHT22;7888;46.748;8.102;2022-08-19T07:19:30;20.40;65.00
15574;DHT22;7888;46.748;8.102;2022-08-19T07:21:57;20.30;64.80
15574;DHT22;7888;46.748;8.102;2022-08-19T07:24:25;20.30;64.70
15574;DHT22;7888;46.748;8.102;2022-08-19T07:26:55;20.30;64.60
15574;DHT22;7888;46.748;8.102;2022-08-19T07:29:27;20.30;64.20
15574;DHT22;7888;46.748;8.102;2022-08-19T07:31:54;20.30;64.30
15574;DHT22;7888;46.748;8.102;2022-08-19T07:34:22;20.30;64.40
15574;DHT22;7888;46.748;8.102;2022-08-19T07:36:49;20.30;64.60
15574;DHT22;7888;46.748;8.102;2022-08-19T07:39:27;20.30;64.50
15574;DHT22;7888;46.748;8.102;2022-08-19T07:41:56;20.20;64.80
15574;DHT22;7888;46.748;8.102;2022-08-19T07:44:23;20.30;65.10
15574;DHT22;7888;46.748;8.102;2022-08-19T07:46:52;20.30;65.00
15574;DHT22;7888;46.748;8.102;2022-08-19T07:49:21;20.30;65.00
15574;DHT22;7888;46.748;8.102;2022-08-19T07:51:57;20.30;64.60
15574;DHT22;7888;46.748;8.102;2022-08-19T07:54:30;20.30;65.30
15574;DHT22;7888;46.748;8.102;2022-08-19T07:56:59;20.30;64.60
15574;DHT22;7888;46.748;8.102;2022-08-19T07:59:26;20.30;64.90
15574;DHT22;7888;46.748;8.102;2022-08-19T08:01:54;20.30;65.10
15574;DHT22;7888;46.748;8.102;2022-08-19T08:04:21;20.20;65.10
15574;DHT22;7888;46.748;8.102;2022-08-19T08:07:07;20.30;65.10
15574;DHT22;7888;46.748;8.102;2022-08-19T08:09:52;20.20;64.60
15574;DHT22;7888;46.748;8.102;2022-08-19T08:12:25;20.20;64.50
15574;DHT22;7888;46.748;8.102;2022-08-19T08:14:57;20.10;65.70
15574;DHT22;7888;46.748;8.102;2022-08-19T08:17:28;20.20;65.10
15574;DHT22;7888;46.748;8.102;2022-08-19T08:19:55;20.10;65.00
15574;DHT22;7888;46.748;8.102;2022-08-19T08:22:22;20.10;65.00
15574;DHT22;7888;46.748;8.102;2022-08-19T08:25:15;20.00;65.10
15574;DHT22;7888;46.748;8.102;2022-08-19T08:27:44;20.00;65.30
15574;DHT22;7888;46.748;8.102;2022-08-19T08:30:14;20.00;65.30
15574;DHT22;7888;46.748;8.102;2022-08-19T08:32:42;20.00;65.50
15574;DHT22;7888;46.748;8.102;2022-08-19T08:35:12;19.90;65.30
15574;DHT22;7888;46.748;8.102;2022-08-19T08:37:39;19.90;65.40
15574;DHT22;7888;46.748;8.102;2022-08-19T08:40:14;19.90;65.10
15574;DHT22;7888;46.748;8.102;2022-08-19T08:42:54;19.90;65.50
15574;DHT22;7888;46.748;8.102;2022-08-19T08:45:49;19.90;65.70
15574;DHT22;7888;46.748;8.102;2022-08-19T08:51:18;20.00;65.80
15574;DHT22;7888;46.748;8.102;2022-08-19T08:53:49;20.00;66.10
15574;DHT22;7888;46.748;8.102;2022-08-19T08:56:19;20.00;66.00
15574;DHT22;7888;46.748;8.102;2022-08-19T08:58:59;20.00;65.90
15574;DHT22;7888;46.748;8.102;2022-08-19T09:01:34;20.00;67.10
15574;DHT22;7888;46.748;8.102;2022-08-19T09:04:04;20.00;65.90
15574;DHT22;7888;46.748;8.102;2022-08-19T09:06:44;20.00;66.40
15574;DHT22;7888;46.748;8.102;2022-08-19T09:14:58;19.90;66.90
15574;DHT22;7888;46.748;8.102;2022-08-19T09:17:29;19.90;66.90
15574;DHT22;7888;46.748;8.102;2022-08-19T09:20:06;19.90;66.60
15574;DHT22;7888;46.748;8.102;2022-08-19T09:22:41;19.90;66.90
15574;DHT22;7888;46.748;8.102;2022-08-19T09:25:12;19.90;66.90
15574;DHT22;7888;46.748;8.102;2022-08-19T09:27:41;19.90;66.90
15574;DHT22;7888;46.748;8.102;2022-08-19T09:30:13;19.90;66.50
15574;DHT22;7888;46.748;8.102;2022-08-19T09:32:41;19.80;66.60
15574;DHT22;7888;46.748;8.102;2022-08-19T09:35:08;19.90;66.80
15574;DHT22;7888;46.748;8.102;2022-08-19T09:37:34;19.80;66.60
15574;DHT22;7888;46.748;8.102;2022-08-19T09:40:01;19.80;66.60
15574;DHT22;7888;46.748;8.102;2022-08-19T09:42:26;19.80;66.50
15574;DHT22;7888;46.748;8.102;2022-08-19T09:44:52;19.80;66.40
15574;DHT22;7888;46.748;8.102;2022-08-19T09:47:18;19.80;66.00
15574;DHT22;7888;46.748;8.102;2022-08-19T09:49:44;19.90;66.20
15574;DHT22;7888;46.748;8.102;2022-08-19T09:52:11;19.90;66.20
15574;DHT22;7888;46.748;8.102;2022-08-19T09:54:38;19.90;66.50
15574;DHT22;7888;46.748;8.102;2022-08-19T09:57:04;19.90;66.60
15574;DHT22;7888;46.748;8.102;2022-08-19T09:59:31;19.90;66.60
15574;DHT22;7888;46.748;8.102;2022-08-19T10:01:57;19.90;66.80
15574;DHT22;7888;46.748;8.102;2022-08-19T10:04:23;19.90;66.60
15574;DHT22;7888;46.748;8.102;2022-08-19T10:07:09;19.90;66.30
15574;DHT22;7888;46.748;8.102;2022-08-19T10:09:35;19.90;65.90
15574;DHT22;7888;46.748;8.102;2022-08-19T10:12:03;19.90;65.60
15574;DHT22;7888;46.748;8.102;2022-08-19T10:14:31;20.00;65.30
15574;DHT22;7888;46.748;8.102;2022-08-19T10:16:57;20.00;65.30
15574;DHT22;7888;46.748;8.102;2022-08-19T10:19:23;20.00;65.50
15574;DHT22;7888;46.748;8.102;2022-08-19T10:21:48;20.00;65.30
15574;DHT22;7888;46.748;8.102;2022-08-19T10:24:14;20.10;65.00
15574;DHT22;7888;46.748;8.102;2022-08-19T10:26:41;20.10;65.00
15574;DHT22;7888;46.748;8.102;2022-08-19T10:29:09;20.10;64.90
15574;DHT22;7888;46.748;8.102;2022-08-19T10:31:37;20.10;64.50
15574;DHT22;7888;46.748;8.102;2022-08-19T10:34:03;20.00;64.20
15574;DHT22;7888;46.748;8.102;2022-08-19T10:36:35;20.00;64.40
15574;DHT22;7888;46.748;8.102;2022-08-19T10:39:05;20.00;64.20
15574;DHT22;7888;46.748;8.102;2022-08-19T10:41:35;20.00;64.50
15574;DHT22;7888;46.748;8.102;2022-08-19T10:44:12;20.10;64.50
15574;DHT22;7888;46.748;8.102;2022-08-19T10:46:43;20.10;64.90
15574;DHT22;7888;46.748;8.102;2022-08-19T10:49:10;20.10;64.50
15574;DHT22;7888;46.748;8.102;2022-08-19T10:51:38;20.10;64.50
15574;DHT22;7888;46.748;8.102;2022-08-19T10:54:24;20.10;64.50
15574;DHT22;7888;46.748;8.102;2022-08-19T10:57:11;20.00;63.90
15574;DHT22;7888;46.748;8.102;2022-08-19T10:59:36;20.10;63.80
15574;DHT22;7888;46.748;8.102;2022-08-19T11:02:07;20.00;63.90
15574;DHT22;7888;46.748;8.102;2022-08-19T11:04:36;20.00;63.50
15574;DHT22;7888;46.748;8.102;2022-08-19T11:07:04;20.00;64.10
15574;DHT22;7888;46.748;8.102;2022-08-19T11:09:30;20.00;64.20
15574;DHT22;7888;46.748;8.102;2022-08-19T11:11:57;20.00;64.50
15574;DHT22;7888;46.748;8.102;2022-08-19T11:14:24;20.10;64.80
15574;DHT22;7888;46.748;8.102;2022-08-19T11:16:51;20.10;65.10
15574;DHT22;7888;46.748;8.102;2022-08-19T11:19:21;20.10;65.30
15574;DHT22;7888;46.748;8.102;2022-08-19T11:21:49;20.10;65.40
15574;DHT22;7888;46.748;8.102;2022-08-19T11:24:20;20.10;65.30
15574;DHT22;7888;46.748;8.102;2022-08-19T11:26:49;20.10;65.40
15574;DHT22;7888;46.748;8.102;2022-08-19T11:29:19;20.20;65.00
15574;DHT22;7888;46.748;8.102;2022-08-19T11:31:48;20.20;64.80
15574;DHT22;7888;46.748;8.102;2022-08-19T11:34:17;20.20;65.00
15574;DHT22;7888;46.748;8.102;2022-08-19T11:36:46;20.20;65.00
15574;DHT22;7888;46.748;8.102;2022-08-19T11:39:15;20.20;64.80
15574;DHT22;7888;46.748;8.102;2022-08-19T11:41:42;20.20;64.60
15574;DHT22;7888;46.748;8.102;2022-08-19T11:44:08;20.20;64.50
15574;DHT22;7888;46.748;8.102;2022-08-19T11:46:36;20.20;64.20
15574;DHT22;7888;46.748;8.102;2022-08-19T11:49:04;20.20;64.10
15574;DHT22;7888;46.748;8.102;2022-08-19T11:51:32;20.20;64.40
15574;DHT22;7888;46.748;8.102;2022-08-19T11:53:59;20.20;64.50
15574;DHT22;7888;46.748;8.102;2022-08-19T11:56:27;20.20;64.50
15574;DHT22;7888;46.748;8.102;2022-08-19T11:58:53;20.20;64.50
15574;DHT22;7888;46.748;8.102;2022-08-19T12:01:21;20.20;64.40
15574;DHT22;7888;46.748;8.102;2022-08-19T12:03:51;20.20;64.30
15574;DHT22;7888;46.748;8.102;2022-08-19T12:06:20;20.20;64.50
15574;DHT22;7888;46.748;8.102;2022-08-19T12:08:58;20.20;64.50
15574;DHT22;7888;46.748;8.102;2022-08-19T12:11:26;20.30;64.50
15574;DHT22;7888;46.748;8.102;2022-08-19T12:13:53;20.30;64.00
15574;DHT22;7888;46.748;8.102;2022-08-19T12:16:25;20.30;63.80
15574;DHT22;7888;46.748;8.102;2022-08-19T12:18:54;20.30;64.20
15574;DHT22;7888;46.748;8.102;2022-08-19T12:21:24;20.30;63.80
15574;DHT22;7888;46.748;8.102;2022-08-19T12:23:56;20.30;64.10
15574;DHT22;7888;46.748;8.102;2022-08-19T12:26:25;20.30;64.10
15574;DHT22;7888;46.748;8.102;2022-08-19T12:28:52;20.30;63.70
15574;DHT22;7888;46.748;8.102;2022-08-19T12:31:19;20.40;64.20
15574;DHT22;7888;46.748;8.102;2022-08-19T12:33:45;20.40;64.20
15574;DHT22;7888;46.748;8.102;2022-08-19T12:36:14;20.40;64.00
15574;DHT22;7888;46.748;8.102;2022-08-19T12:38:41;20.40;64.60
15574;DHT22;7888;46.748;8.102;2022-08-19T12:41:12;20.40;64.60
15574;DHT22;7888;46.748;8.102;2022-08-19T12:43:41;20.40;64.70
15574;DHT22;7888;46.748;8.102;2022-08-19T12:46:08;20.40;65.20
15574;DHT22;7888;46.748;8.102;2022-08-19T12:48:34;20.50;65.50
15574;DHT22;7888;46.748;8.102;2022-08-19T12:51:06;20.50;65.40
15574;DHT22;7888;46.748;8.102;2022-08-19T12:53:34;20.50;65.50
15574;DHT22;7888;46.748;8.102;2022-08-19T12:56:01;20.60;65.50
15574;DHT22;7888;46.748;8.102;2022-08-19T12:58:28;20.60;65.60
15574;DHT22;7888;46.748;8.102;2022-08-19T13:00:55;20.60;65.10
15574;DHT22;7888;46.748;8.102;2022-08-19T13:03:21;20.60;65.00
15574;DHT22;7888;46.748;8.102;2022-08-19T13:05:54;20.60;64.50
15574;DHT22;7888;46.748;8.102;2022-08-19T13:08:21;20.60;64.30
15574;DHT22;7888;46.748;8.102;2022-08-19T13:10:46;20.60;64.30
15574;DHT22;7888;46.748;8.102;2022-08-19T13:13:12;20.60;64.40
15574;DHT22;7888;46.748;8.102;2022-08-19T13:15:41;20.60;64.60
15574;DHT22;7888;46.748;8.102;2022-08-19T13:18:09;20.60;64.20
15574;DHT22;7888;46.748;8.102;2022-08-19T13:20:36;20.60;64.30
15574;DHT22;7888;46.748;8.102;2022-08-19T13:23:03;20.60;64.40
15574;DHT22;7888;46.748;8.102;2022-08-19T13:25:30;20.60;64.30
15574;DHT22;7888;46.748;8.102;2022-08-19T13:27:56;20.60;64.30
15574;DHT22;7888;46.748;8.102;2022-08-19T13:30:22;20.60;64.40
15574;DHT22;7888;46.748;8.102;2022-08-19T13:33:11;20.70;64.20
15574;DHT22;7888;46.748;8.102;2022-08-19T13:35:49;20.70;64.80
15574;DHT22;7888;46.748;8.102;2022-08-19T13:38:22;20.70;63.80
15574;DHT22;7888;46.748;8.102;2022-08-19T13:40:50;20.70;63.80
15574;DHT22;7888;46.748;8.102;2022-08-19T13:43:18;20.70;64.20
15574;DHT22;7888;46.748;8.102;2022-08-19T13:45:47;20.80;64.60
15574;DHT22;7888;46.748;8.102;2022-08-19T13:48:13;20.80;64.80
15574;DHT22;7888;46.748;8.102;2022-08-19T13:50:44;20.80;64.80
15574;DHT22;7888;46.748;8.102;2022-08-19T13:53:12;20.80;64.10
15574;DHT22;7888;46.748;8.102;2022-08-19T13:55:42;20.80;64.00
15574;DHT22;7888;46.748;8.102;2022-08-19T13:58:10;20.90;64.10
15574;DHT22;7888;46.748;8.102;2022-08-19T14:00:40;20.90;63.80
15574;DHT22;7888;46.748;8.102;2022-08-19T14:03:08;20.90;63.60
15574;DHT22;7888;46.748;8.102;2022-08-19T14:05:35;20.90;63.50
15574;DHT22;7888;46.748;8.102;2022-08-19T14:08:02;20.90;63.40
15574;DHT22;7888;46.748;8.102;2022-08-19T14:10:28;20.90;63.70
15574;DHT22;7888;46.748;8.102;2022-08-19T14:12:58;20.90;63.90
15574;DHT22;7888;46.748;8.102;2022-08-19T14:15:26;20.90;63.70
15574;DHT22;7888;46.748;8.102;2022-08-19T14:17:53;20.90;63.40
15574;DHT22;7888;46.748;8.102;2022-08-19T14:20:20;20.90;63.80
15574;DHT22;7888;46.748;8.102;2022-08-19T14:22:47;20.90;63.90
15574;DHT22;7888;46.748;8.102;2022-08-19T14:25:20;20.80;64.00
15574;DHT22;7888;46.748;8.102;2022-08-19T14:27:49;20.90;64.00
15574;DHT22;7888;46.748;8.102;2022-08-19T14:30:21;20.80;63.90
15574;DHT22;7888;46.748;8.102;2022-08-19T14:32:56;20.90;63.70
15574;DHT22;7888;46.748;8.102;2022-08-19T14:35:24;20.90;63.40
15574;DHT22;7888;46.748;8.102;2022-08-19T14:37:52;20.80;63.70
15574;DHT22;7888;46.748;8.102;2022-08-19T14:40:25;20.80;63.40
15574;DHT22;7888;46.748;8.102;2022-08-19T14:42:53;20.80;63.60
15574;DHT22;7888;46.748;8.102;2022-08-19T14:45:26;20.80;63.60
15574;DHT22;7888;46.748;8.102;2022-08-19T14:47:53;20.80;64.70
15574;DHT22;7888;46.748;8.102;2022-08-19T14:50:20;20.70;63.50
15574;DHT22;7888;46.748;8.102;2022-08-19T14:52:47;20.70;63.70
15574;DHT22;7888;46.748;8.102;2022-08-19T14:55:14;20.70;63.60
15574;DHT22;7888;46.748;8.102;2022-08-19T14:57:41;20.70;63.30
15574;DHT22;7888;46.748;8.102;2022-08-19T15:00:09;20.70;63.50
15574;DHT22;7888;46.748;8.102;2022-08-19T15:02:39;20.70;63.80
15574;DHT22;7888;46.748;8.102;2022-08-19T15:05:06;20.70;63.40
15574;DHT22;7888;46.748;8.102;2022-08-19T15:07:32;20.70;63.30
15574;DHT22;7888;46.748;8.102;2022-08-19T15:09:58;20.70;63.00
15574;DHT22;7888;46.748;8.102;2022-08-19T15:12:24;20.70;63.30
15574;DHT22;7888;46.748;8.102;2022-08-19T15:14:51;20.70;63.00
15574;DHT22;7888;46.748;8.102;2022-08-19T15:17:17;20.70;63.20
15574;DHT22;7888;46.748;8.102;2022-08-19T15:19:45;20.70;62.80
15574;DHT22;7888;46.748;8.102;2022-08-19T15:22:11;20.70;62.90
15574;DHT22;7888;46.748;8.102;2022-08-19T15:24:37;20.70;63.40
15574;DHT22;7888;46.748;8.102;2022-08-19T15:27:04;20.70;63.80
15574;DHT22;7888;46.748;8.102;2022-08-19T15:29:30;20.70;63.60
15574;DHT22;7888;46.748;8.102;2022-08-19T15:31:57;20.70;63.80
15574;DHT22;7888;46.748;8.102;2022-08-19T15:34:25;20.70;63.80
15574;DHT22;7888;46.748;8.102;2022-08-19T15:36:51;20.70;63.90
15574;DHT22;7888;46.748;8.102;2022-08-19T15:39:19;20.80;64.10
15574;DHT22;7888;46.748;8.102;2022-08-19T15:41:45;20.80;64.10
15574;DHT22;7888;46.748;8.102;2022-08-19T15:44:14;20.80;63.70
15574;DHT22;7888;46.748;8.102;2022-08-19T15:46:44;20.80;63.50
15574;DHT22;7888;46.748;8.102;2022-08-19T15:49:13;20.80;64.00
15574;DHT22;7888;46.748;8.102;2022-08-19T15:51:43;20.80;63.60
15574;DHT22;7888;46.748;8.102;2022-08-19T15:54:17;20.80;64.20
15574;DHT22;7888;46.748;8.102;2022-08-19T15:56:46;20.80;64.50
15574;DHT22;7888;46.748;8.102;2022-08-19T15:59:33;20.80;64.20
15574;DHT22;7888;46.748;8.102;2022-08-19T16:02:22;20.80;64.20
15574;DHT22;7888;46.748;8.102;2022-08-19T16:05:10;20.80;64.20
15574;DHT22;7888;46.748;8.102;2022-08-19T16:07:57;20.80;65.00
15574;DHT22;7888;46.748;8.102;2022-08-19T16:10:23;20.80;64.10
15574;DHT22;7888;46.748;8.102;2022-08-19T16:12:50;20.80;64.20